Agen-La Garenne Airport

Airport
ICAO code: 
LFBA
IATA Code: 
AGF
Summary
ICAO Region: 
EUR
Territory: 
Location: 
Agen, Aquitaine
Serving: 
Agen
Elevation: 
204 ft
Coordinates: 
Aerial View: 
44° 10' 28.996" N, 0° 35' 26.002" E
Metar
Observation
LFBA 041330Z AUTO 28016KT 250V310 9999 FEW034/// ///CB 13/08 Q1012 TEMPO 25015G35KT 3000 SHRA FEW013CB BKN014TCU
Station
Agen
Date/Time
2021-12-04 13:30:00
Wind direction
280°
Wind speed
16 kts
Lowest cloud amount
few clouds
Temperature
13°C
Dew point
8°C
Humidity
71%
QNH
1012 hPa
Weather condition
n/a

Runways

Designator Length Width Surface Rops
11/29 2165 30 ASP No/No
Airport map: 
Aerial View: 

SKYbrary Partners:

Safety knowledge contributed by: